Time;durP1;ratioP1;P1;durP2;ratioP2;P2;SDS_P1;SDS_P2;PMS_P1;PMS_P2;Temp;Humidity;BMP_temperature;BMP_pressure;BME280_temperature;BME280_humidity;BME280_pressure;Samples;Min_cycle;Max_cycle;Signal;HPM_P1;HPM_P2
2023/06/03 00:04:41;;;;;;;2.10;1.10;;;;;;;6.18;53.61;100106.20;436713;1253;138900;-64
2023/06/03 00:14:47;;;;;;;0.90;0.70;;;;;;;6.09;54.11;100115.41;436577;1253;139831;-64
2023/06/03 00:24:53;;;;;;;1.60;0.70;;;;;;;5.94;54.66;100118.86;436431;1251;138225;-64
2023/06/03 00:34:59;;;;;;;1.20;0.80;;;;;;;5.86;55.18;100115.13;436864;1253;138277;-64
2023/06/03 00:45:06;;;;;;;2.20;0.70;;;;;;;5.76;55.53;100116.05;436683;1253;138355;-64
2023/06/03 00:55:12;;;;;;;0.80;0.80;;;;;;;5.61;56.17;100117.61;436801;1251;139496;-63
2023/06/03 01:05:19;;;;;;;1.40;0.90;;;;;;;5.48;56.88;100123.44;436618;1251;139824;-64
2023/06/03 01:15:28;;;;;;;2.60;0.70;;;;;;;5.32;57.27;100125.88;436751;1251;138464;-64
2023/06/03 01:25:35;;;;;;;2.10;0.70;;;;;;;5.17;57.96;100130.70;436400;1251;138137;-65
2023/06/03 01:35:42;;;;;;;1.30;0.60;;;;;;;5.05;58.75;100135.24;436641;1251;138361;-67
2023/06/03 01:45:48;;;;;;;1.40;0.50;;;;;;;4.92;59.04;100145.39;436908;1254;138766;-63
2023/06/03 01:55:54;;;;;;;15.60;10.60;;;;;;;4.84;59.91;100152.42;437363;1251;139653;-63
2023/06/03 02:06:00;;;;;;;2.70;1.40;;;;;;;4.75;60.61;100152.86;436589;1251;139754;-65
2023/06/03 02:16:06;;;;;;;2.60;0.80;;;;;;;4.64;61.03;100155.08;436421;1251;139526;-64
2023/06/03 02:26:13;;;;;;;1.40;1.00;;;;;;;4.62;61.08;100164.34;436598;1251;141227;-63
2023/06/03 02:36:19;;;;;;;3.00;1.20;;;;;;;4.60;61.78;100173.75;436363;1251;140600;-64
2023/06/03 02:46:25;;;;;;;1.50;0.70;;;;;;;4.58;62.10;100177.82;436310;1250;139821;-64
2023/06/03 02:56:31;;;;;;;1.30;0.70;;;;;;;4.74;62.33;100181.48;435875;1251;140263;-64
2023/06/03 03:06:38;;;;;;;2.30;1.00;;;;;;;5.80;62.40;100193.94;436318;1251;140290;-65
2023/06/03 03:16:43;;;;;;;2.00;0.70;;;;;;;9.83;58.48;100193.44;436553;1251;139308;-64
2023/06/03 03:26:50;;;;;;;3.60;0.60;;;;;;;10.86;53.08;100198.02;436808;1251;138726;-63
2023/06/03 03:36:56;;;;;;;0.90;0.70;;;;;;;9.46;52.70;100213.98;436679;1251;139553;-63
2023/06/03 03:47:02;;;;;;;2.50;0.50;;;;;;;8.24;53.92;100225.19;436731;1253;139091;-63
2023/06/03 03:57:13;;;;;;;2.40;0.60;;;;;;;8.11;55.00;100224.38;436553;1251;139069;-64
2023/06/03 04:07:21;;;;;;;0.50;0.50;;;;;;;14.29;51.90;100219.83;436530;1251;139280;-63
2023/06/03 04:17:30;;;;;;;0.90;0.50;;;;;;;20.98;43.39;100217.63;436963;1250;140854;-64
2023/06/03 04:27:36;;;;;;;1.20;0.40;;;;;;;25.42;37.26;100215.98;437041;1253;138467;-64
2023/06/03 04:37:41;;;;;;;2.30;0.50;;;;;;;28.24;32.05;100222.56;436323;1251;139125;-64
2023/06/03 04:47:47;;;;;;;2.00;1.20;;;;;;;29.88;28.94;100228.02;436581;1253;139845;-65
2023/06/03 04:57:54;;;;;;;3.30;0.70;;;;;;;31.25;26.19;100227.45;436973;1253;138659;-65
2023/06/03 05:07:59;;;;;;;4.40;1.30;;;;;;;31.79;24.43;100230.95;437249;1251;138974;-64
2023/06/03 05:18:04;;;;;;;;;;;;;;;33.78;22.95;100239.30;437067;1253;139506;-64
2023/06/03 05:28:11;;;;;;;3.20;0.90;;;;;;;35.69;21.73;100234.39;436847;1251;124929;-63
2023/06/03 05:38:16;;;;;;;2.20;0.50;;;;;;;35.96;20.22;100241.66;436238;1253;139262;-64
2023/06/03 05:48:22;;;;;;;2.60;0.90;;;;;;;37.82;19.14;100251.73;436767;1251;139760;-64
2023/06/03 05:58:28;;;;;;;0.70;0.70;;;;;;;39.00;18.00;100250.30;437292;1252;139226;-65
2023/06/03 06:08:34;;;;;;;2.30;0.70;;;;;;;40.54;17.00;100244.54;436624;1251;138576;-64
2023/06/03 06:18:40;;;;;;;0.70;0.50;;;;;;;41.15;16.16;100246.83;436598;1253;139052;-64
2023/06/03 06:28:46;;;;;;;2.30;0.60;;;;;;;42.00;15.02;100246.27;437210;1253;138492;-63
2023/06/03 06:38:53;;;;;;;0.80;0.70;;;;;;;43.31;14.58;100251.75;436644;1251;140094;-65
2023/06/03 06:48:58;;;;;;;2.00;0.90;;;;;;;44.23;13.67;100249.52;436481;1251;138680;-65
2023/06/03 06:59:04;;;;;;;2.50;0.80;;;;;;;43.44;13.38;100247.75;436380;1253;139785;-65
2023/06/03 07:09:10;;;;;;;2.40;0.90;;;;;;;44.72;12.93;100249.00;436439;1253;140692;-65
2023/06/03 07:19:16;;;;;;;3.90;1.10;;;;;;;45.03;12.46;100246.56;435535;1251;167563;-64
2023/06/03 07:29:22;;;;;;;2.00;1.00;;;;;;;45.55;11.88;100249.50;435728;1253;140281;-64
2023/06/03 07:39:28;;;;;;;1.10;1.00;;;;;;;44.81;11.92;100251.66;436177;1251;138808;-65
2023/06/03 07:49:35;;;;;;;2.60;0.90;;;;;;;45.22;11.46;100257.19;436255;1251;138995;-64
2023/06/03 07:59:43;;;;;;;1.60;1.00;;;;;;;36.47;13.23;100255.79;436632;1251;139282;-64
2023/06/03 08:09:49;;;;;;;2.50;0.50;;;;;;;27.98;17.25;100266.86;436928;1251;139036;-64
2023/06/03 08:19:55;;;;;;;1.10;0.50;;;;;;;23.20;20.78;100275.38;436637;1251;138625;-64
2023/06/03 08:30:03;;;;;;;0.80;0.40;;;;;;;21.12;23.03;100271.33;436835;1253;138724;-64
2023/06/03 08:40:11;;;;;;;2.70;0.70;;;;;;;20.62;23.69;100267.83;437117;1253;138535;-65
2023/06/03 08:50:21;;;;;;;0.50;0.30;;;;;;;19.80;24.08;100274.44;437232;1251;139499;-64
2023/06/03 09:00:28;;;;;;;1.00;0.60;;;;;;;19.23;25.06;100282.84;436644;1251;140446;-65
2023/06/03 09:10:35;;;;;;;1.40;0.50;;;;;;;18.80;25.60;100282.58;436601;1253;138782;-63
2023/06/03 09:20:41;;;;;;;2.60;0.80;;;;;;;18.71;25.32;100279.92;436441;1251;139281;-62
2023/06/03 09:30:47;;;;;;;1.60;0.50;;;;;;;18.70;26.01;100275.95;436083;1251;140445;-63
2023/06/03 09:40:53;;;;;;;1.40;0.40;;;;;;;18.42;25.73;100277.33;436339;1253;140081;-66
2023/06/03 09:50:59;;;;;;;0.60;0.30;;;;;;;17.81;25.63;100283.14;436237;1253;139716;-63
2023/06/03 10:01:06;;;;;;;1.00;0.50;;;;;;;17.80;25.90;100270.94;436221;1251;138764;-64
2023/06/03 10:11:13;;;;;;;2.70;0.60;;;;;;;17.48;26.48;100275.34;436379;1253;139876;-63
2023/06/03 10:21:20;;;;;;;0.40;0.40;;;;;;;16.78;27.44;100277.05;436358;1251;139018;-63
2023/06/03 10:31:27;;;;;;;0.40;0.30;;;;;;;16.53;27.89;100267.10;436606;1251;140648;-64
2023/06/03 10:41:36;;;;;;;1.60;0.50;;;;;;;16.42;28.34;100250.48;436823;1251;139814;-62
2023/06/03 10:51:58;;;;;;;0.80;0.20;;;;;;;16.26;28.01;100249.83;436593;1252;140379;-63
2023/06/03 11:02:05;;;;;;;0.70;0.70;;;;;;;15.81;28.71;100237.85;436429;1253;139223;-63
2023/06/03 11:12:13;;;;;;;0.60;0.30;;;;;;;15.66;28.75;100226.20;436509;1251;139129;-63
2023/06/03 11:22:31;;;;;;;;;;;;;;;15.62;28.69;100224.59;436501;1251;138504;-63
2023/06/03 11:32:38;;;;;;;1.90;0.60;;;;;;;15.54;28.52;100221.12;436505;1250;126301;-61
2023/06/03 11:43:07;;;;;;;0.90;0.30;;;;;;;15.72;29.47;100220.66;436598;1251;138633;-61
2023/06/03 11:53:29;;;;;;;0.90;0.30;;;;;;;15.84;29.72;100224.01;436624;1251;138511;-62
2023/06/03 12:03:35;;;;;;;1.70;0.30;;;;;;;15.83;29.93;100222.66;437280;1253;141133;-63
2023/06/03 12:13:42;;;;;;;1.30;0.50;;;;;;;15.80;29.97;100218.96;436696;1251;138757;-63
2023/06/03 12:23:48;;;;;;;3.20;0.50;;;;;;;15.88;30.04;100207.13;436672;1251;139253;-62
2023/06/03 12:33:55;;;;;;;1.10;0.40;;;;;;;15.99;30.66;100198.84;437016;1251;138724;-63
2023/06/03 12:44:03;;;;;;;0.60;0.30;;;;;;;16.02;30.36;100186.29;436486;1253;139144;-63
2023/06/03 12:54:09;;;;;;;3.70;0.70;;;;;;;16.04;30.50;100183.33;436612;1251;139129;-63
2023/06/03 13:04:14;;;;;;;6.80;1.20;;;;;;;16.10;30.28;100176.64;436437;1253;139103;-63
2023/06/03 13:14:20;;;;;;;1.20;0.40;;;;;;;16.13;30.48;100162.11;436263;1253;138964;-62
2023/06/03 13:24:26;;;;;;;1.80;0.30;;;;;;;16.26;30.69;100160.96;436864;1251;139992;-62
2023/06/03 13:34:32;;;;;;;0.40;0.40;;;;;;;16.19;30.87;100162.16;437067;1253;138464;-62
2023/06/03 13:44:38;;;;;;;1.50;0.40;;;;;;;16.07;30.55;100148.64;436698;1251;138683;-62
2023/06/03 13:54:44;;;;;;;0.70;0.40;;;;;;;16.12;30.22;100143.09;436593;1251;139595;-62
2023/06/03 14:04:49;;;;;;;1.90;0.90;;;;;;;16.21;30.86;100139.25;436170;1251;140084;-62
2023/06/03 14:14:55;;;;;;;0.90;0.20;;;;;;;16.20;30.64;100130.14;436502;1253;139224;-63
2023/06/03 14:25:01;;;;;;;0.50;0.40;;;;;;;16.20;30.80;100119.56;436391;1253;140281;-63
2023/06/03 14:35:09;;;;;;;1.30;0.60;;;;;;;16.25;31.12;100119.50;436747;1253;139628;-61
2023/06/03 14:45:15;;;;;;;1.70;0.30;;;;;;;16.26;31.17;100119.91;436798;1253;140262;-63
2023/06/03 14:55:21;;;;;;;2.70;0.50;;;;;;;16.33;31.28;100119.61;436432;1253;140011;-63
2023/06/03 15:05:27;;;;;;;1.50;0.20;;;;;;;16.36;31.29;100104.89;436617;1251;140901;-63
2023/06/03 15:15:33;;;;;;;5.80;0.40;;;;;;;16.46;31.05;100090.98;436559;1254;139147;-63
2023/06/03 15:25:39;;;;;;;2.00;0.40;;;;;;;16.50;31.30;100092.21;437053;1251;139099;-62
2023/06/03 15:35:45;;;;;;;1.00;0.40;;;;;;;16.50;31.20;100079.02;436604;1253;139653;-63
2023/06/03 15:45:50;;;;;;;2.10;0.40;;;;;;;16.53;31.19;100067.46;436916;1254;139288;-62
2023/06/03 15:55:56;;;;;;;0.90;0.40;;;;;;;16.56;31.25;100064.92;436941;1251;140280;-63
2023/06/03 16:06:02;;;;;;;1.30;0.50;;;;;;;16.51;31.06;100055.02;436469;1255;141062;-63
2023/06/03 16:16:08;;;;;;;0.50;0.20;;;;;;;16.50;31.20;100049.29;437015;1253;138543;-63
2023/06/03 16:26:14;;;;;;;5.70;1.30;;;;;;;16.44;31.60;100045.61;436825;1251;139547;-62
2023/06/03 16:36:20;;;;;;;0.40;0.30;;;;;;;16.37;31.64;100037.80;437570;1250;139090;-62
2023/06/03 16:46:28;;;;;;;1.00;0.60;;;;;;;16.60;31.83;100033.68;436370;1254;140307;-62
2023/06/03 16:56:33;;;;;;;;;;;;;;;16.61;31.60;100035.15;436129;1254;139844;-63
2023/06/03 17:06:38;;;;;;;2.10;0.60;;;;;;;16.20;32.04;100025.95;437222;1253;125367;-63
2023/06/03 17:16:44;;;;;;;1.20;0.60;;;;;;;15.94;32.52;100026.58;436179;1251;138758;-63
2023/06/03 17:26:50;;;;;;;3.00;0.80;;;;;;;15.73;32.84;100024.70;436373;1253;140519;-62
2023/06/03 17:36:56;;;;;;;0.40;0.40;;;;;;;15.54;33.32;100024.01;436211;1253;139357;-62
2023/06/03 17:47:02;;;;;;;2.30;0.50;;;;;;;15.36;33.69;100023.13;436447;1256;138726;-62
2023/06/03 17:57:08;;;;;;;0.80;0.50;;;;;;;15.15;34.07;100017.64;436624;1253;139031;-64
2023/06/03 18:07:14;;;;;;;2.80;0.90;;;;;;;14.94;34.25;100014.45;436685;1253;139929;-64
2023/06/03 18:17:20;;;;;;;2.80;0.90;;;;;;;14.70;34.64;100006.16;436705;1254;139347;-62
2023/06/03 18:27:26;;;;;;;2.10;0.80;;;;;;;14.41;34.96;100016.19;436581;1253;139371;-63
2023/06/03 18:37:32;;;;;;;1.30;0.90;;;;;;;14.07;35.50;100018.80;436689;1251;140175;-63
2023/06/03 18:47:37;;;;;;;1.10;0.80;;;;;;;13.72;36.26;100030.09;436645;1251;140449;-62
2023/06/03 18:57:47;;;;;;;1.00;0.70;;;;;;;13.39;37.00;100033.08;436690;1254;140581;-63
2023/06/03 19:07:53;;;;;;;3.90;1.30;;;;;;;13.06;37.70;100037.20;437030;1253;139655;-62
2023/06/03 19:17:58;;;;;;;2.00;0.80;;;;;;;12.77;38.41;100053.50;436394;1251;143363;-63
2023/06/03 19:28:04;;;;;;;2.00;1.20;;;;;;;12.50;39.01;100068.42;436725;1254;139756;-62
2023/06/03 19:38:10;;;;;;;2.80;1.50;;;;;;;12.27;39.56;100074.25;436011;1251;139006;-63
2023/06/03 19:48:16;;;;;;;2.40;1.20;;;;;;;11.94;40.61;100091.22;435918;1252;140024;-63
2023/06/03 19:58:22;;;;;;;2.00;1.40;;;;;;;11.63;41.53;100101.98;436930;1253;138484;-65
2023/06/03 20:08:27;;;;;;;8.70;1.70;;;;;;;11.46;41.72;100114.41;436628;1254;139121;-63
2023/06/03 20:18:33;;;;;;;3.90;1.80;;;;;;;11.37;42.23;100119.45;436448;1253;139035;-63
2023/06/03 20:28:39;;;;;;;9.60;2.40;;;;;;;11.09;43.58;100121.05;436656;1251;139079;-62
2023/06/03 20:38:45;;;;;;;4.60;2.30;;;;;;;10.90;44.50;100127.79;436555;1253;139087;-62
2023/06/03 20:48:51;;;;;;;2.40;1.60;;;;;;;10.66;44.86;100134.18;436512;1251;139376;-62
2023/06/03 20:58:58;;;;;;;3.40;2.20;;;;;;;10.53;44.98;100138.21;436560;1251;139028;-63
2023/06/03 21:09:04;;;;;;;5.90;2.90;;;;;;;10.45;45.50;100136.88;436375;1251;139553;-62
2023/06/03 21:19:13;;;;;;;3.30;2.50;;;;;;;10.27;46.04;100135.92;436820;1254;140781;-63
2023/06/03 21:29:20;;;;;;;4.20;2.30;;;;;;;10.08;46.95;100137.97;436799;1253;139504;-63
2023/06/03 21:39:26;;;;;;;7.90;2.20;;;;;;;9.85;47.57;100132.87;436584;1254;139222;-63
2023/06/03 21:49:32;;;;;;;5.20;3.20;;;;;;;9.72;47.82;100130.19;436675;1254;138944;-65
2023/06/03 21:59:39;;;;;;;4.40;2.40;;;;;;;9.68;48.48;100125.33;436644;1251;139894;-62
2023/06/03 22:09:44;;;;;;;4.70;2.40;;;;;;;9.62;48.80;100130.22;437118;1251;139966;-62
2023/06/03 22:19:50;;;;;;;7.10;4.70;;;;;;;9.54;49.29;100127.84;436246;1251;140270;-62
2023/06/03 22:29:56;;;;;;;8.90;5.30;;;;;;;9.29;50.91;100117.17;436235;1253;140431;-62
2023/06/03 22:40:02;;;;;;;8.00;5.00;;;;;;;8.92;51.67;100112.00;436611;1251;138838;-63
2023/06/03 22:50:10;;;;;;;8.80;6.30;;;;;;;8.64;52.77;100116.08;436213;1251;139798;-62
2023/06/03 23:00:15;;;;;;;;;;;;;;;8.27;53.99;100118.66;436764;1251;139423;-63
2023/06/03 23:10:21;;;;;;;7.90;5.60;;;;;;;7.96;54.97;100119.19;436495;1254;124746;-62
2023/06/03 23:20:28;;;;;;;6.90;5.60;;;;;;;7.68;55.83;100119.55;436245;1251;140317;-62
2023/06/03 23:30:35;;;;;;;10.30;6.60;;;;;;;7.42;56.99;100114.20;436466;1251;139233;-62
2023/06/03 23:40:40;;;;;;;7.50;5.50;;;;;;;7.19;57.63;100114.29;436335;1253;139969;-62
2023/06/03 23:50:46;;;;;;;7.20;4.30;;;;;;;6.93;58.39;100108.54;436350;1253;139465;-62
